Time;durP1;ratioP1;P1;durP2;ratioP2;P2;SDS_P1;SDS_P2;PMS_P1;PMS_P2;Temp;Humidity;BMP_temperature;BMP_pressure;BME280_temperature;BME280_humidity;BME280_pressure;Samples;Min_cycle;Max_cycle;Signal;HPM_P1;HPM_P2
2022/11/13 00:00:54;;;;;;;36.47;24.47;;;6.10;99.90;;;;;;5020302;28;20647;-72
2022/11/13 00:03:21;;;;;;;37.53;24.37;;;6.10;99.90;;;;;;5021535;28;20207;-71
2022/11/13 00:06:00;;;;;;;42.37;25.93;;;6.10;99.90;;;;;;5020346;28;20310;-71
2022/11/13 00:08:27;;;;;;;39.27;24.63;;;6.10;99.90;;;;;;5023152;28;20261;-71
2022/11/13 00:11:11;;;;;;;43.13;25.77;;;6.00;99.90;;;;;;5001323;28;20207;-70
2022/11/13 00:13:38;;;;;;;37.17;24.43;;;6.00;99.90;;;;;;5022776;28;20252;-71
2022/11/13 00:16:09;;;;;;;38.60;25.83;;;6.00;99.90;;;;;;5018841;28;20218;-71
2022/11/13 00:18:36;;;;;;;40.63;26.30;;;6.00;99.90;;;;;;5025857;28;20288;-71
2022/11/13 00:21:10;;;;;;;38.67;24.83;;;6.00;99.90;;;;;;5018329;28;20262;-71
2022/11/13 00:23:36;;;;;;;36.83;24.60;;;6.00;99.90;;;;;;5023388;28;20201;-72
2022/11/13 00:26:10;;;;;;;36.30;24.50;;;6.00;99.90;;;;;;5018544;28;20215;-72
2022/11/13 00:28:37;;;;;;;37.77;24.20;;;5.90;99.90;;;;;;5021995;28;20585;-71
2022/11/13 00:31:06;;;;;;;36.50;23.07;;;6.00;99.90;;;;;;5020387;28;20204;-72
2022/11/13 00:33:33;;;;;;;41.60;24.53;;;5.90;99.90;;;;;;5026383;28;20199;-71
2022/11/13 00:36:26;;;;;;;39.73;25.17;;;5.90;99.90;;;;;;5018566;28;20222;-71
2022/11/13 00:38:53;;;;;;;46.27;26.10;;;5.90;99.90;;;;;;5025115;28;20233;-72
2022/11/13 00:41:21;;;;;;;40.77;26.43;;;5.80;99.90;;;;;;5019794;28;20702;-71
2022/11/13 00:43:47;;;;;;;40.93;25.23;;;5.80;99.90;;;;;;5021861;28;20223;-71
2022/11/13 00:46:14;;;;;;;41.23;25.57;;;5.80;99.90;;;;;;5009713;28;20260;-71
2022/11/13 00:48:41;;;;;;;40.30;24.53;;;5.80;99.90;;;;;;5015081;28;20725;-72
2022/11/13 00:51:09;;;;;;;39.40;23.80;;;5.80;99.90;;;;;;5022897;28;20308;-72
2022/11/13 00:53:36;;;;;;;42.50;24.70;;;5.70;99.90;;;;;;5024591;28;20244;-72
2022/11/13 00:56:03;;;;;;;44.63;25.33;;;5.70;99.90;;;;;;5018352;28;20219;-71
2022/11/13 00:58:30;;;;;;;38.70;23.97;;;5.70;99.90;;;;;;5011552;28;20265;-71
2022/11/13 01:01:05;;;;;;;36.83;23.63;;;5.70;99.90;;;;;;5024007;28;20733;-70
2022/11/13 01:03:32;;;;;;;40.63;22.77;;;5.70;99.90;;;;;;5022682;28;20201;-72
2022/11/13 01:05:58;;;;;;;35.70;22.57;;;5.70;99.90;;;;;;5026631;28;20597;-71
2022/11/13 01:08:25;;;;;;;42.43;23.13;;;5.70;99.90;;;;;;5025391;28;20209;-71
2022/11/13 01:10:53;;;;;;;34.87;21.97;;;5.60;99.90;;;;;;5024694;28;20609;-69
2022/11/13 01:13:20;;;;;;;36.70;22.67;;;5.60;99.90;;;;;;5024949;28;20196;-72
2022/11/13 01:15:47;;;;;;;35.90;23.13;;;5.60;99.90;;;;;;5023282;28;20972;-71
2022/11/13 01:18:13;;;;;;;39.83;23.40;;;5.60;99.90;;;;;;5023206;28;20238;-72
2022/11/13 01:20:40;;;;;;;40.77;21.70;;;5.50;99.90;;;;;;5026049;28;20248;-72
2022/11/13 01:23:07;;;;;;;41.53;23.33;;;5.50;99.90;;;;;;5013073;28;20255;-71
2022/11/13 01:25:34;;;;;;;38.80;23.93;;;5.50;99.90;;;;;;5023161;28;20249;-72
2022/11/13 01:28:01;;;;;;;40.37;23.67;;;5.40;99.90;;;;;;5023150;28;20226;-70
2022/11/13 01:30:28;;;;;;;45.73;26.47;;;5.40;99.90;;;;;;5030031;28;20623;-71
2022/11/13 01:32:54;;;;;;;46.73;26.70;;;5.40;99.90;;;;;;5008578;28;20223;-72
2022/11/13 01:35:21;;;;;;;51.93;28.03;;;5.30;99.90;;;;;;5023339;28;20265;-71
2022/11/13 01:37:48;;;;;;;46.10;28.03;;;5.30;99.90;;;;;;5022750;28;20224;-71
2022/11/13 01:40:15;;;;;;;54.80;27.97;;;5.30;99.90;;;;;;5026214;28;20210;-70
2022/11/13 01:42:42;;;;;;;45.03;26.17;;;5.30;99.90;;;;;;5019204;28;20228;-70
2022/11/13 01:45:46;;;;;;;49.80;28.33;;;5.20;99.90;;;;;;5026040;28;20227;-70
2022/11/13 01:48:13;;;;;;;46.63;27.47;;;5.20;99.90;;;;;;5026122;28;20212;-71
2022/11/13 01:50:40;;;;;;;48.10;29.40;;;5.20;99.90;;;;;;5024242;28;20202;-71
2022/11/13 01:53:07;;;;;;;51.07;28.07;;;5.10;99.90;;;;;;5027048;28;20286;-71
2022/11/13 01:55:34;;;;;;;43.77;25.77;;;5.10;99.90;;;;;;5028673;28;20428;-71
2022/11/13 01:58:03;;;;;;;50.60;27.17;;;5.10;99.90;;;;;;5023404;28;20238;-71
2022/11/13 02:00:30;;;;;;;44.17;26.70;;;5.10;99.90;;;;;;5025899;28;20286;-71
2022/11/13 02:02:57;;;;;;;52.23;29.67;;;5.10;99.90;;;;;;5021783;28;20218;-72
2022/11/13 02:05:24;;;;;;;53.83;28.70;;;5.10;99.90;;;;;;5019426;28;20292;-70
2022/11/13 02:07:52;;;;;;;46.50;27.50;;;5.10;99.90;;;;;;5023431;28;20221;-72
2022/11/13 02:10:19;;;;;;;49.60;27.13;;;5.10;99.90;;;;;;5027487;28;20667;-71
2022/11/13 02:12:49;;;;;;;44.57;26.50;;;5.10;99.90;;;;;;5021944;28;20210;-70
2022/11/13 02:15:23;;;;;;;44.70;26.10;;;5.10;99.90;;;;;;5004908;28;20261;-71
2022/11/13 02:17:55;;;;;;;38.20;25.20;;;5.00;99.90;;;;;;5008779;28;20229;-70
2022/11/13 02:20:54;;;;;;;43.90;27.30;;;5.00;99.90;;;;;;5023693;28;20203;-72
2022/11/13 02:23:35;;;;;;;48.23;27.03;;;5.00;99.90;;;;;;5022351;28;20738;-72
2022/11/13 02:26:03;;;;;;;44.57;25.93;;;5.00;99.90;;;;;;5022388;28;21062;-70
2022/11/13 02:28:30;;;;;;;45.67;27.07;;;5.00;99.90;;;;;;5023193;28;20221;-71
2022/11/13 02:31:08;;;;;;;46.13;27.63;;;5.00;99.90;;;;;;5016179;28;20202;-70
2022/11/13 02:33:35;;;;;;;46.63;27.50;;;5.00;99.90;;;;;;5021856;28;20321;-71
2022/11/13 02:36:04;;;;;;;50.67;27.63;;;4.90;99.90;;;;;;5014575;28;20226;-71
2022/11/13 02:38:34;;;;;;;46.77;27.10;;;4.90;99.90;;;;;;5023714;28;20294;-72
2022/11/13 02:41:01;;;;;;;43.17;24.00;;;4.90;99.90;;;;;;5026675;28;20276;-71
2022/11/13 02:43:27;;;;;;;44.33;25.50;;;4.90;99.90;;;;;;5019014;28;20239;-71
2022/11/13 02:45:54;;;;;;;44.33;25.03;;;5.00;99.90;;;;;;5022109;28;20206;-71
2022/11/13 02:48:24;;;;;;;42.30;23.90;;;4.90;99.90;;;;;;5025257;28;20526;-72
2022/11/13 02:50:51;;;;;;;43.17;24.37;;;4.90;99.90;;;;;;5026384;28;20972;-71
2022/11/13 02:53:18;;;;;;;42.93;25.63;;;4.90;99.90;;;;;;5015884;28;20206;-72
2022/11/13 02:55:44;;;;;;;40.17;25.00;;;4.90;99.90;;;;;;5025612;28;20207;-70
2022/11/13 02:58:11;;;;;;;38.77;23.77;;;4.90;99.90;;;;;;5024677;28;20674;-71
2022/11/13 03:00:38;;;;;;;38.13;24.30;;;4.90;99.90;;;;;;5024584;28;20297;-72
2022/11/13 03:03:05;;;;;;;39.40;25.83;;;4.90;99.90;;;;;;5024902;28;20222;-73
2022/11/13 03:05:32;;;;;;;42.93;27.40;;;4.90;99.90;;;;;;5028730;28;20632;-71
2022/11/13 03:08:01;;;;;;;44.60;26.40;;;4.90;99.90;;;;;;5006422;28;20585;-69
2022/11/13 03:10:28;;;;;;;41.40;25.13;;;5.00;99.90;;;;;;5023062;28;20219;-72
2022/11/13 03:12:54;;;;;;;40.67;23.93;;;5.00;99.90;;;;;;5025842;28;20580;-71
2022/11/13 03:15:21;;;;;;;41.37;24.57;;;5.00;99.90;;;;;;5021013;28;20202;-71
2022/11/13 03:17:50;;;;;;;39.57;24.37;;;4.90;99.90;;;;;;5022050;28;20289;-71
2022/11/13 03:20:17;;;;;;;44.83;26.80;;;4.90;99.90;;;;;;5020543;28;20311;-71
2022/11/13 03:22:44;;;;;;;38.40;24.47;;;4.90;99.90;;;;;;5023160;28;20602;-72
2022/11/13 03:25:12;;;;;;;40.93;23.93;;;4.80;99.90;;;;;;5006225;28;20214;-70
2022/11/13 03:27:45;;;;;;;38.00;23.63;;;4.80;99.90;;;;;;5009883;28;20217;-71
2022/11/13 03:30:12;;;;;;;37.87;22.87;;;4.80;99.90;;;;;;5017904;28;20208;-72
2022/11/13 03:32:39;;;;;;;44.13;24.53;;;4.80;99.90;;;;;;5005942;28;20217;-72
2022/11/13 03:35:07;;;;;;;42.10;24.40;;;4.80;99.90;;;;;;5023656;28;20682;-71
2022/11/13 03:37:34;;;;;;;40.63;23.67;;;4.80;99.90;;;;;;5021256;28;20752;-72
2022/11/13 03:40:01;;;;;;;43.70;24.60;;;4.70;99.90;;;;;;5020388;28;20205;-70
2022/11/13 03:42:28;;;;;;;40.33;24.07;;;4.70;99.90;;;;;;5024202;28;20992;-70
2022/11/13 03:44:54;;;;;;;44.57;24.43;;;4.70;99.90;;;;;;5024815;28;20478;-71
2022/11/13 03:47:22;;;;;;;38.10;22.60;;;4.70;99.90;;;;;;5020739;28;20695;-71
2022/11/13 03:49:48;;;;;;;45.33;24.43;;;4.60;99.90;;;;;;5004884;28;20741;-71
2022/11/13 03:52:20;;;;;;;38.23;23.17;;;4.60;99.90;;;;;;5022428;28;20245;-71
2022/11/13 03:54:47;;;;;;;40.63;22.53;;;4.60;99.90;;;;;;5023537;28;20297;-73
2022/11/13 03:57:14;;;;;;;39.13;22.70;;;4.60;99.90;;;;;;5022880;28;20665;-71
2022/11/13 03:59:41;;;;;;;39.77;22.07;;;4.60;99.90;;;;;;5024340;28;20224;-70
2022/11/13 04:02:07;;;;;;;41.07;22.80;;;4.60;99.90;;;;;;5020800;28;20333;-71
2022/11/13 04:04:34;;;;;;;40.43;22.80;;;4.60;99.90;;;;;;5022800;28;20210;-70
2022/11/13 04:07:01;;;;;;;41.70;22.50;;;4.50;99.90;;;;;;5024045;28;20316;-71
2022/11/13 04:09:28;;;;;;;44.97;23.97;;;4.50;99.90;;;;;;5008167;28;20576;-71
2022/11/13 04:11:55;;;;;;;42.97;23.33;;;4.50;99.90;;;;;;5026212;28;20230;-71
2022/11/13 04:14:22;;;;;;;40.50;22.73;;;4.50;99.90;;;;;;5021975;28;20553;-70
2022/11/13 04:16:48;;;;;;;43.50;23.17;;;4.50;99.90;;;;;;5023363;28;20290;-71
2022/11/13 04:19:15;;;;;;;41.00;23.30;;;4.50;99.90;;;;;;5021687;28;20220;-71
2022/11/13 04:21:42;;;;;;;41.40;22.70;;;4.50;99.90;;;;;;5020010;28;20222;-72
2022/11/13 04:24:08;;;;;;;42.80;23.90;;;4.50;99.90;;;;;;5024697;28;20233;-72
2022/11/13 04:26:35;;;;;;;38.80;22.80;;;4.40;99.90;;;;;;5023270;28;20217;-71
2022/11/13 04:29:02;;;;;;;52.00;24.80;;;4.40;99.90;;;;;;5026044;28;20241;-70
2022/11/13 04:31:29;;;;;;;60.13;29.37;;;4.40;99.90;;;;;;5025181;28;20214;-71
2022/11/13 04:33:55;;;;;;;63.07;33.13;;;4.30;99.90;;;;;;5007812;28;20210;-71
2022/11/13 04:36:22;;;;;;;117.83;37.00;;;4.30;99.90;;;;;;5020062;28;20223;-71
2022/11/13 04:38:49;;;;;;;156.20;40.10;;;4.30;99.90;;;;;;5022041;28;20283;-71
2022/11/13 04:44:01;;;;;;;109.10;38.10;;;4.20;99.90;;;;;;5021149;28;20339;-71
2022/11/13 04:46:28;;;;;;;108.37;37.57;;;4.10;99.90;;;;;;5018277;28;20304;-71
2022/11/13 04:48:55;;;;;;;99.70;37.00;;;4.10;99.90;;;;;;5026326;28;20216;-72
2022/11/13 04:51:22;;;;;;;79.83;34.87;;;4.00;99.90;;;;;;5022608;28;20246;-72
2022/11/13 04:53:48;;;;;;;80.93;32.93;;;4.00;99.90;;;;;;5005288;28;20211;-72
2022/11/13 04:56:15;;;;;;;75.90;30.80;;;4.00;99.90;;;;;;5008853;28;20319;-70
2022/11/13 04:58:42;;;;;;;81.67;31.20;;;3.90;99.90;;;;;;5022601;28;20236;-72
2022/11/13 05:01:09;;;;;;;76.53;32.03;;;3.90;99.90;;;;;;5019342;28;20365;-71
2022/11/13 05:03:36;;;;;;;70.83;30.37;;;3.90;99.90;;;;;;5021820;28;20232;-72
2022/11/13 05:06:05;;;;;;;61.83;30.40;;;3.80;99.90;;;;;;5022957;28;20271;-72
2022/11/13 05:08:32;;;;;;;54.13;28.93;;;3.80;99.90;;;;;;5024257;28;20613;-71
2022/11/13 05:11:00;;;;;;;51.53;29.80;;;3.80;99.90;;;;;;5023232;28;20204;-71
2022/11/13 05:13:30;;;;;;;44.80;27.43;;;3.80;99.90;;;;;;5018346;28;20300;-72
2022/11/13 05:16:06;;;;;;;53.33;28.40;;;3.80;99.90;;;;;;5023985;28;20240;-72
2022/11/13 05:18:34;;;;;;;45.97;28.37;;;3.80;99.90;;;;;;5024294;28;20331;-73
2022/11/13 05:21:01;;;;;;;49.00;27.73;;;3.70;99.90;;;;;;5022924;28;20304;-72
2022/11/13 05:23:28;;;;;;;45.47;26.93;;;3.70;99.90;;;;;;5023779;28;20225;-71
2022/11/13 05:26:07;;;;;;;47.13;28.37;;;3.70;99.90;;;;;;5026048;28;20240;-71
2022/11/13 05:28:34;;;;;;;44.13;27.30;;;3.70;99.90;;;;;;5022759;28;20215;-72
2022/11/13 05:31:07;;;;;;;48.10;27.77;;;3.70;99.90;;;;;;5004659;28;20295;-70
2022/11/13 05:33:34;;;;;;;46.97;27.77;;;3.70;99.90;;;;;;5018888;28;20579;-71
2022/11/13 05:36:04;;;;;;;52.80;29.23;;;3.70;99.90;;;;;;5021751;28;20256;-73
2022/11/13 05:38:32;;;;;;;47.03;28.17;;;3.60;99.90;;;;;;5025210;28;20214;-71
2022/11/13 05:41:09;;;;;;;48.83;29.07;;;3.60;99.90;;;;;;5023009;28;20196;-71
2022/11/13 05:43:36;;;;;;;47.70;26.90;;;3.60;99.90;;;;;;5012879;28;20236;-72
2022/11/13 05:46:11;;;;;;;51.87;28.93;;;3.60;99.90;;;;;;5022602;28;20241;-72
2022/11/13 05:48:39;;;;;;;54.47;27.43;;;3.60;99.90;;;;;;5025424;28;20325;-72
2022/11/13 05:51:09;;;;;;;46.20;27.27;;;3.60;99.90;;;;;;5028229;28;20209;-72
2022/11/13 05:53:36;;;;;;;47.17;27.77;;;3.60;99.90;;;;;;5022399;28;20292;-71
2022/11/13 05:56:14;;;;;;;41.60;25.80;;;3.60;99.90;;;;;;5022129;28;20210;-71
2022/11/13 05:58:42;;;;;;;45.57;27.97;;;3.60;99.90;;;;;;5012477;28;20239;-72
2022/11/13 06:01:19;;;;;;;47.67;26.03;;;3.50;99.90;;;;;;5022332;28;20208;-71
2022/11/13 06:03:46;;;;;;;49.37;27.37;;;3.60;99.90;;;;;;5023692;28;20824;-71
2022/11/13 06:06:16;;;;;;;43.63;27.20;;;3.60;99.90;;;;;;5026028;28;20219;-72
2022/11/13 06:08:45;;;;;;;49.63;26.70;;;3.50;99.90;;;;;;5021983;28;20640;-71
2022/11/13 06:11:18;;;;;;;46.57;27.07;;;3.50;99.90;;;;;;5025999;28;20279;-72
2022/11/13 06:13:46;;;;;;;42.87;25.53;;;3.50;99.90;;;;;;5021778;28;20589;-72
2022/11/13 06:16:16;;;;;;;44.13;26.87;;;3.50;99.90;;;;;;5022989;28;20239;-72
2022/11/13 06:18:44;;;;;;;46.73;26.30;;;3.50;99.90;;;;;;5023789;28;20290;-72
2022/11/13 06:21:14;;;;;;;48.20;25.87;;;3.50;99.90;;;;;;5025642;28;20237;-73
2022/11/13 06:23:41;;;;;;;43.67;25.00;;;3.50;99.90;;;;;;5027847;28;20238;-72
2022/11/13 06:26:20;;;;;;;45.63;26.00;;;3.50;99.90;;;;;;5025151;28;20660;-72
2022/11/13 06:28:47;;;;;;;44.53;25.57;;;3.50;99.90;;;;;;5023745;28;20299;-73
2022/11/13 06:31:40;;;;;;;46.80;25.67;;;3.50;99.90;;;;;;5023576;28;20210;-74
2022/11/13 06:34:07;;;;;;;42.40;26.37;;;3.40;99.90;;;;;;5019381;28;20199;-72
2022/11/13 06:36:35;;;;;;;43.97;26.07;;;3.40;99.90;;;;;;5025148;28;20786;-71
2022/11/13 06:39:08;;;;;;;47.33;27.13;;;3.40;99.90;;;;;;5019898;28;20322;-71
2022/11/13 06:41:36;;;;;;;41.80;26.30;;;3.40;99.90;;;;;;5022190;28;20208;-73
2022/11/13 06:44:03;;;;;;;40.30;25.93;;;3.40;99.90;;;;;;5025617;28;20232;-72
2022/11/13 06:46:30;;;;;;;42.47;25.83;;;3.40;99.90;;;;;;5021391;28;20339;-71
2022/11/13 06:48:57;;;;;;;41.57;25.17;;;3.40;99.90;;;;;;5026048;28;20203;-72
2022/11/13 06:51:26;;;;;;;45.37;26.00;;;3.40;99.90;;;;;;5025591;28;20221;-72
2022/11/13 06:53:53;;;;;;;37.37;24.67;;;3.40;99.90;;;;;;5024051;28;20196;-73
2022/11/13 06:56:22;;;;;;;46.60;27.33;;;3.40;99.90;;;;;;5025652;28;20294;-71
2022/11/13 06:58:49;;;;;;;44.97;25.97;;;3.40;99.90;;;;;;5023049;28;20290;-72
2022/11/13 07:01:21;;;;;;;44.43;26.50;;;3.40;99.90;;;;;;5009973;28;20273;-72
2022/11/13 07:03:49;;;;;;;37.03;24.00;;;3.40;99.90;;;;;;5022593;28;20255;-72
2022/11/13 07:06:21;;;;;;;40.27;25.10;;;3.40;99.90;;;;;;5020495;28;20236;-72
2022/11/13 07:08:48;;;;;;;41.30;24.60;;;3.50;99.90;;;;;;5023479;28;20241;-71
2022/11/13 07:11:18;;;;;;;37.83;23.43;;;3.40;99.90;;;;;;5025291;28;20280;-73
2022/11/13 07:13:45;;;;;;;40.00;24.50;;;3.40;99.90;;;;;;5022049;28;20585;-73
2022/11/13 07:16:13;;;;;;;41.90;25.37;;;3.40;99.90;;;;;;5020328;28;20337;-73
2022/11/13 07:18:51;;;;;;;39.03;25.00;;;3.40;99.90;;;;;;5022879;28;20238;-71
2022/11/13 07:21:18;;;;;;;44.33;26.17;;;3.40;99.90;;;;;;5025751;28;20207;-71
2022/11/13 07:23:47;;;;;;;39.30;25.00;;;3.40;99.90;;;;;;5026352;28;20685;-72
2022/11/13 07:26:14;;;;;;;42.87;25.77;;;3.40;99.90;;;;;;5021828;28;20342;-72
2022/11/13 07:28:41;;;;;;;47.90;27.63;;;3.40;99.90;;;;;;5025300;28;20652;-72
2022/11/13 07:31:10;;;;;;;48.20;28.50;;;3.50;99.90;;;;;;5032061;28;20240;-73
2022/11/13 07:33:37;;;;;;;49.47;31.23;;;3.50;99.90;;;;;;5020011;28;20209;-71
2022/11/13 07:36:04;;;;;;;55.03;34.33;;;3.50;99.90;;;;;;5023339;28;20215;-72
2022/11/13 07:38:31;;;;;;;56.20;33.00;;;3.60;99.90;;;;;;5016292;28;20304;-71
2022/11/13 07:40:58;;;;;;;52.63;35.47;;;3.60;99.90;;;;;;5025498;28;20545;-72
2022/11/13 07:43:25;;;;;;;53.77;34.13;;;3.70;99.90;;;;;;5023684;28;20232;-72
2022/11/13 07:45:54;;;;;;;62.53;38.30;;;3.80;99.90;;;;;;5021331;28;20237;-71
2022/11/13 07:48:21;;;;;;;61.43;39.20;;;3.80;99.90;;;;;;5020043;28;20555;-71
2022/11/13 07:50:49;;;;;;;56.27;35.30;;;3.80;99.90;;;;;;5022566;28;20759;-72
2022/11/13 07:53:19;;;;;;;53.93;35.97;;;3.80;99.90;;;;;;5019600;28;20217;-71
2022/11/13 07:55:46;;;;;;;52.03;34.23;;;3.90;99.90;;;;;;5022667;28;20293;-72
2022/11/13 07:58:13;;;;;;;50.83;32.03;;;3.90;99.90;;;;;;5025439;28;20334;-71
2022/11/13 08:00:40;;;;;;;54.97;34.67;;;3.90;99.90;;;;;;5026188;28;20197;-71
2022/11/13 08:03:12;;;;;;;57.63;35.03;;;3.90;99.90;;;;;;5014561;28;20661;-71
2022/11/13 08:05:39;;;;;;;59.50;33.43;;;4.00;99.90;;;;;;5021540;28;20218;-72
2022/11/13 08:08:07;;;;;;;62.60;35.40;;;4.10;99.90;;;;;;5009185;28;20213;-71
2022/11/13 08:10:36;;;;;;;58.47;33.70;;;4.10;99.90;;;;;;5025527;28;20202;-72
2022/11/13 08:13:06;;;;;;;53.47;33.43;;;4.10;99.90;;;;;;5021828;28;20213;-72
2022/11/13 08:15:33;;;;;;;57.20;34.50;;;4.20;99.90;;;;;;5022572;28;20198;-72
2022/11/13 08:18:02;;;;;;;56.40;33.27;;;4.20;99.90;;;;;;5022665;28;20299;-71
2022/11/13 08:20:30;;;;;;;50.97;32.73;;;4.20;99.90;;;;;;5016849;28;20589;-72
2022/11/13 08:22:58;;;;;;;52.30;31.73;;;4.30;99.90;;;;;;5009259;28;20698;-71
2022/11/13 08:25:26;;;;;;;55.77;32.40;;;4.30;99.90;;;;;;5008705;28;20213;-72
2022/11/13 08:27:54;;;;;;;54.07;32.57;;;4.40;99.90;;;;;;5026297;28;20309;-72
2022/11/13 08:30:21;;;;;;;53.57;31.13;;;4.40;99.90;;;;;;5031030;28;20216;-72
2022/11/13 08:32:48;;;;;;;52.50;31.63;;;4.40;99.90;;;;;;5019357;28;20240;-72
2022/11/13 08:35:16;;;;;;;54.67;32.70;;;4.50;99.90;;;;;;5001448;28;20214;-72
2022/11/13 08:37:45;;;;;;;52.87;31.60;;;4.50;99.90;;;;;;5019195;28;20286;-72
2022/11/13 08:40:12;;;;;;;56.47;32.33;;;4.60;99.90;;;;;;5018988;28;20280;-72
2022/11/13 08:42:39;;;;;;;52.07;33.67;;;4.60;99.90;;;;;;5022166;28;20208;-72
2022/11/13 08:45:07;;;;;;;52.87;32.10;;;4.60;99.90;;;;;;5026107;28;20299;-72
2022/11/13 08:47:34;;;;;;;56.27;35.17;;;4.70;99.90;;;;;;5023956;28;20219;-71
2022/11/13 08:50:02;;;;;;;52.97;32.27;;;4.80;99.90;;;;;;5016104;28;20298;-71
2022/11/13 08:52:29;;;;;;;52.57;33.50;;;4.80;99.90;;;;;;5002123;28;20223;-72
2022/11/13 08:54:56;;;;;;;60.60;36.33;;;4.90;99.90;;;;;;5019297;28;20284;-72
2022/11/13 08:57:23;;;;;;;57.57;35.90;;;4.90;99.90;;;;;;5006757;28;20233;-73
2022/11/13 08:59:49;;;;;;;63.73;38.17;;;4.90;99.90;;;;;;5018320;28;20213;-72
2022/11/13 09:02:16;;;;;;;63.90;38.13;;;4.90;99.90;;;;;;5023056;28;20292;-73
2022/11/13 09:04:43;;;;;;;70.07;43.07;;;4.90;99.90;;;;;;5019274;28;20237;-71
2022/11/13 09:07:10;;;;;;;69.40;43.10;;;5.00;99.90;;;;;;5021113;28;20273;-73
2022/11/13 09:09:37;;;;;;;69.40;43.67;;;5.10;99.90;;;;;;5023547;28;20213;-71
2022/11/13 09:12:04;;;;;;;65.30;42.13;;;5.10;99.90;;;;;;5021932;28;20206;-72
2022/11/13 09:14:31;;;;;;;67.67;42.17;;;5.20;99.90;;;;;;5024250;28;20552;-72
2022/11/13 09:16:58;;;;;;;79.77;48.73;;;5.30;99.90;;;;;;5025985;28;20210;-72
2022/11/13 09:19:25;;;;;;;73.93;48.43;;;5.40;99.90;;;;;;5028121;28;20198;-72
2022/11/13 09:21:54;;;;;;;77.23;48.90;;;5.50;99.90;;;;;;5024699;28;20237;-72
2022/11/13 09:24:21;;;;;;;73.07;47.13;;;5.60;99.90;;;;;;5025625;28;20219;-72
2022/11/13 09:26:48;;;;;;;73.43;46.13;;;5.70;99.90;;;;;;5029569;28;20213;-72
2022/11/13 09:29:15;;;;;;;73.30;46.80;;;5.80;99.90;;;;;;5025041;28;20308;-72
2022/11/13 09:31:42;;;;;;;72.60;46.17;;;5.90;99.90;;;;;;5027693;28;20207;-72
2022/11/13 09:34:09;;;;;;;74.67;46.87;;;6.10;99.90;;;;;;5023039;28;20584;-71
2022/11/13 09:36:36;;;;;;;66.60;43.70;;;6.10;99.90;;;;;;5023010;28;20365;-72
2022/11/13 09:39:05;;;;;;;66.87;45.17;;;6.20;99.90;;;;;;5020439;28;20690;-72
2022/11/13 09:42:03;;;;;;;67.03;43.93;;;6.30;99.90;;;;;;5023959;28;20210;-71
2022/11/13 09:44:56;;;;;;;64.10;40.77;;;6.40;99.90;;;;;;5021820;28;20317;-72
2022/11/13 09:47:37;;;;;;;57.50;39.13;;;6.60;99.90;;;;;;5023300;28;20682;-71
2022/11/13 09:50:26;;;;;;;55.80;37.77;;;6.60;99.90;;;;;;5008085;28;20533;-73
2022/11/13 09:52:53;;;;;;;50.30;37.07;;;6.60;99.90;;;;;;5017785;28;20435;-73
2022/11/13 09:55:31;;;;;;;54.97;35.97;;;6.70;99.90;;;;;;5011940;28;20203;-72
2022/11/13 09:58:17;;;;;;;53.10;36.53;;;6.70;99.90;;;;;;5003918;28;20242;-72
2022/11/13 10:00:45;;;;;;;52.50;37.33;;;7.00;99.90;;;;;;5023925;28;20292;-71
2022/11/13 10:03:35;;;;;;;49.57;36.50;;;7.10;99.90;;;;;;5022985;28;20651;-72
2022/11/13 10:06:38;;;;;;;50.77;35.33;;;7.10;99.90;;;;;;5020470;28;20228;-74
2022/11/13 10:09:12;;;;;;;48.90;35.80;;;;;;;;;;5023119;28;20271;-72
2022/11/13 10:11:44;;;;;;;46.93;34.23;;;7.10;99.90;;;;;;5001473;28;20213;-72
2022/11/13 10:14:49;;;;;;;50.43;34.90;;;7.10;99.90;;;;;;5012040;28;20198;-72
2022/11/13 10:17:27;;;;;;;46.23;34.20;;;7.20;99.90;;;;;;5016605;28;20240;-71
2022/11/13 10:20:14;;;;;;;45.97;33.63;;;7.30;99.90;;;;;;5005171;28;20579;-72
2022/11/13 10:23:05;;;;;;;45.00;31.73;;;7.30;99.90;;;;;;5005032;28;20227;-72
2022/11/13 10:25:35;;;;;;;47.43;32.37;;;7.40;99.90;;;;;;5008752;28;20713;-72
2022/11/13 10:28:16;;;;;;;43.17;31.77;;;7.50;99.90;;;;;;5004844;28;20303;-73
2022/11/13 10:31:02;;;;;;;37.83;28.77;;;7.50;99.90;;;;;;5022560;28;20203;-73
2022/11/13 10:33:29;;;;;;;38.37;28.40;;;7.60;99.90;;;;;;5028471;28;20224;-71
2022/11/13 10:36:30;;;;;;;40.13;28.97;;;7.70;99.90;;;;;;5026976;28;20220;-73
2022/11/13 10:39:09;;;;;;;36.03;27.73;;;7.80;99.90;;;;;;5020244;28;20202;-71
2022/11/13 10:41:50;;;;;;;36.43;27.73;;;7.80;99.90;;;;;;5024014;28;20296;-73
2022/11/13 10:44:23;;;;;;;35.00;27.07;;;7.90;99.90;;;;;;5027682;28;21002;-72
2022/11/13 10:46:51;;;;;;;34.83;25.67;;;8.00;99.90;;;;;;5023359;28;20214;-72
2022/11/13 10:49:29;;;;;;;33.73;24.10;;;8.10;99.90;;;;;;5025317;28;20237;-72
2022/11/13 10:51:58;;;;;;;34.17;26.30;;;8.10;99.90;;;;;;5010114;28;20218;-71
2022/11/13 10:54:28;;;;;;;33.67;24.57;;;8.20;99.90;;;;;;5009987;28;20285;-72
2022/11/13 10:57:03;;;;;;;34.17;24.80;;;8.30;99.90;;;;;;5009771;28;20235;-72
2022/11/13 10:59:42;;;;;;;30.87;23.10;;;8.40;99.90;;;;;;5022381;28;20824;-72
2022/11/13 11:02:18;;;;;;;31.70;22.90;;;8.50;99.90;;;;;;5018988;28;20627;-72
2022/11/13 11:04:48;;;;;;;29.47;22.57;;;8.50;99.90;;;;;;5009932;28;20302;-71
2022/11/13 11:07:21;;;;;;;26.67;22.17;;;8.60;99.90;;;;;;5024321;28;20219;-72
2022/11/13 11:09:50;;;;;;;27.83;21.90;;;8.70;99.90;;;;;;5024183;28;20204;-71
2022/11/13 11:12:21;;;;;;;28.00;22.37;;;8.80;99.90;;;;;;5020305;28;20206;-71
2022/11/13 11:14:58;;;;;;;29.43;22.10;;;8.90;99.90;;;;;;5023735;28;20220;-72
2022/11/13 11:17:49;;;;;;;29.37;23.00;;;9.00;99.90;;;;;;5020534;28;20203;-71
2022/11/13 11:20:56;;;;;;;28.43;21.63;;;9.10;99.90;;;;;;5025048;28;20675;-72
2022/11/13 11:23:48;;;;;;;24.97;20.30;;;9.10;99.90;;;;;;4987082;28;20203;-72
2022/11/13 11:26:34;;;;;;;25.50;20.33;;;9.20;99.90;;;;;;5024277;28;20212;-71
2022/11/13 11:29:37;;;;;;;27.73;21.20;;;9.20;99.90;;;;;;5024611;28;20199;-72
2022/11/13 11:32:30;;;;;;;25.67;21.53;;;9.30;99.90;;;;;;5013099;28;20587;-72
2022/11/13 11:35:06;;;;;;;26.47;19.90;;;9.40;99.90;;;;;;5019856;28;20269;-71
2022/11/13 11:37:39;;;;;;;21.70;18.17;;;9.50;99.90;;;;;;5020400;28;20260;-72
2022/11/13 11:40:26;;;;;;;22.67;18.53;;;9.60;99.90;;;;;;5025285;28;20197;-72
2022/11/13 11:43:03;;;;;;;23.17;19.53;;;9.70;99.90;;;;;;5021581;28;20189;-71
2022/11/13 11:45:40;;;;;;;23.00;18.80;;;9.80;99.90;;;;;;5020501;28;20723;-70
2022/11/13 11:48:13;;;;;;;25.57;18.47;;;9.90;99.90;;;;;;5017397;28;20623;-71
2022/11/13 11:51:01;;;;;;;25.13;19.17;;;10.00;99.90;;;;;;5001362;28;20221;-71
2022/11/13 11:54:01;;;;;;;21.33;18.67;;;10.10;99.90;;;;;;5018394;28;20707;-71
2022/11/13 11:56:45;;;;;;;21.57;17.33;;;10.20;99.90;;;;;;5019541;28;20267;-71
2022/11/13 11:59:38;;;;;;;20.77;17.10;;;10.30;99.90;;;;;;5019208;28;20317;-71
2022/11/13 12:02:05;;;;;;;18.73;15.80;;;10.30;99.90;;;;;;5018916;28;20285;-71
2022/11/13 12:05:02;;;;;;;19.53;17.07;;;10.40;99.90;;;;;;5020697;28;20230;-71
2022/11/13 12:07:40;;;;;;;21.27;16.50;;;10.50;99.90;;;;;;5018217;28;20271;-71
2022/11/13 12:10:35;;;;;;;19.43;16.47;;;10.50;99.90;;;;;;5024473;28;20186;-71
2022/11/13 12:13:17;;;;;;;21.83;17.43;;;10.60;99.90;;;;;;5024952;28;20244;-71
2022/11/13 12:15:59;;;;;;;24.20;18.03;;;10.70;99.90;;;;;;5019588;28;20777;-71
2022/11/13 12:18:51;;;;;;;20.47;15.80;;;10.80;99.90;;;;;;5018759;28;20222;-71
2022/11/13 12:21:21;;;;;;;18.13;15.70;;;10.80;99.90;;;;;;5021013;28;20724;-72
2022/11/13 12:24:06;;;;;;;21.27;16.23;;;10.90;99.90;;;;;;5017990;28;20303;-72
2022/11/13 12:27:02;;;;;;;21.30;17.80;;;11.00;99.90;;;;;;5023240;28;20198;-73
2022/11/13 12:29:39;;;;;;;22.63;17.03;;;11.10;99.90;;;;;;5008134;28;21075;-70
2022/11/13 12:32:18;;;;;;;20.50;16.77;;;11.10;99.90;;;;;;5005674;28;20687;-72
2022/11/13 12:34:52;;;;;;;20.43;16.50;;;11.20;99.90;;;;;;5021851;28;20304;-72
2022/11/13 12:37:33;;;;;;;19.60;16.87;;;11.30;99.90;;;;;;5022679;28;20300;-72
2022/11/13 12:40:06;;;;;;;18.90;15.67;;;11.30;99.90;;;;;;5021315;28;20212;-72
2022/11/13 12:42:43;;;;;;;20.17;15.97;;;11.40;99.90;;;;;;5019362;28;20252;-71
2022/11/13 12:45:23;;;;;;;19.00;15.73;;;11.50;99.90;;;;;;5002861;28;20334;-72
2022/11/13 12:47:51;;;;;;;16.90;14.80;;;11.50;99.90;;;;;;5019821;28;20320;-71
2022/11/13 12:50:29;;;;;;;19.67;15.50;;;11.60;99.90;;;;;;5019209;28;20214;-71
2022/11/13 12:53:06;;;;;;;18.83;14.90;;;11.70;99.90;;;;;;5015448;28;20211;-72
2022/11/13 12:55:35;;;;;;;17.23;13.43;;;11.80;99.90;;;;;;5024291;28;20204;-72
2022/11/13 12:58:21;;;;;;;16.53;14.03;;;;;;;;;;5018995;28;20261;-72
2022/11/13 13:01:11;;;;;;;14.57;12.83;;;11.90;99.90;;;;;;5016834;28;20333;-72